sensor_id;sensor_type;location;lat;lon;timestamp;temperature;humidity
8463;DHT22;4268;52.506;13.462;2023-08-06T00:00:04;17.70;99.90
8463;DHT22;4268;52.506;13.462;2023-08-06T00:02:30;17.70;99.90
8463;DHT22;4268;52.506;13.462;2023-08-06T00:04:55;17.70;99.90
8463;DHT22;4268;52.506;13.462;2023-08-06T00:07:21;17.70;99.90
8463;DHT22;4268;52.506;13.462;2023-08-06T00:09:46;17.60;99.90
8463;DHT22;4268;52.506;13.462;2023-08-06T00:12:12;17.60;99.90
8463;DHT22;4268;52.506;13.462;2023-08-06T00:14:37;17.60;99.90
8463;DHT22;4268;52.506;13.462;2023-08-06T00:17:03;17.60;99.90
8463;DHT22;4268;52.506;13.462;2023-08-06T00:19:30;17.60;99.90
8463;DHT22;4268;52.506;13.462;2023-08-06T00:21:56;17.60;99.90
8463;DHT22;4268;52.506;13.462;2023-08-06T00:24:21;17.60;99.90
8463;DHT22;4268;52.506;13.462;2023-08-06T00:26:47;17.50;99.90
8463;DHT22;4268;52.506;13.462;2023-08-06T00:29:12;17.60;99.90
8463;DHT22;4268;52.506;13.462;2023-08-06T00:31:38;17.60;99.90
8463;DHT22;4268;52.506;13.462;2023-08-06T00:34:03;17.60;99.90
8463;DHT22;4268;52.506;13.462;2023-08-06T00:36:29;17.60;99.90
8463;DHT22;4268;52.506;13.462;2023-08-06T00:38:54;17.60;99.90
8463;DHT22;4268;52.506;13.462;2023-08-06T00:41:21;17.60;99.90
8463;DHT22;4268;52.506;13.462;2023-08-06T00:43:46;17.60;99.90
8463;DHT22;4268;52.506;13.462;2023-08-06T00:46:12;17.60;99.90
8463;DHT22;4268;52.506;13.462;2023-08-06T00:48:38;17.50;99.90
8463;DHT22;4268;52.506;13.462;2023-08-06T00:51:04;17.60;99.90
8463;DHT22;4268;52.506;13.462;2023-08-06T00:53:30;17.60;99.90
8463;DHT22;4268;52.506;13.462;2023-08-06T00:55:55;17.60;99.90
8463;DHT22;4268;52.506;13.462;2023-08-06T00:58:21;17.60;99.90
8463;DHT22;4268;52.506;13.462;2023-08-06T01:00:47;17.60;99.90
8463;DHT22;4268;52.506;13.462;2023-08-06T01:03:12;17.60;99.90
8463;DHT22;4268;52.506;13.462;2023-08-06T01:05:38;17.60;99.90
8463;DHT22;4268;52.506;13.462;2023-08-06T01:08:36;17.60;99.90
8463;DHT22;4268;52.506;13.462;2023-08-06T01:13:54;17.50;99.90
8463;DHT22;4268;52.506;13.462;2023-08-06T01:16:24;17.50;99.90
8463;DHT22;4268;52.506;13.462;2023-08-06T01:18:50;17.50;99.90
8463;DHT22;4268;52.506;13.462;2023-08-06T01:21:17;17.50;99.90
8463;DHT22;4268;52.506;13.462;2023-08-06T01:23:43;17.50;99.90
8463;DHT22;4268;52.506;13.462;2023-08-06T01:28:56;18.90;99.90
8463;DHT22;4268;52.506;13.462;2023-08-06T01:31:30;17.40;99.90
8463;DHT22;4268;52.506;13.462;2023-08-06T01:33:58;17.40;99.90
8463;DHT22;4268;52.506;13.462;2023-08-06T01:36:24;17.40;99.90
8463;DHT22;4268;52.506;13.462;2023-08-06T01:38:51;17.50;99.90
8463;DHT22;4268;52.506;13.462;2023-08-06T01:41:18;17.40;99.90
8463;DHT22;4268;52.506;13.462;2023-08-06T01:43:43;17.40;99.90
8463;DHT22;4268;52.506;13.462;2023-08-06T01:46:09;17.30;99.90
8463;DHT22;4268;52.506;13.462;2023-08-06T01:48:35;17.40;99.90
8463;DHT22;4268;52.506;13.462;2023-08-06T01:51:00;17.30;99.90
8463;DHT22;4268;52.506;13.462;2023-08-06T01:53:26;17.30;99.90
8463;DHT22;4268;52.506;13.462;2023-08-06T01:55:52;17.30;99.90
8463;DHT22;4268;52.506;13.462;2023-08-06T01:58:17;17.20;99.90
8463;DHT22;4268;52.506;13.462;2023-08-06T02:00:43;17.20;99.90
8463;DHT22;4268;52.506;13.462;2023-08-06T02:03:08;17.20;99.90
8463;DHT22;4268;52.506;13.462;2023-08-06T02:05:34;17.20;99.90
8463;DHT22;4268;52.506;13.462;2023-08-06T02:07:59;17.10;99.90
8463;DHT22;4268;52.506;13.462;2023-08-06T02:10:25;17.20;99.90
8463;DHT22;4268;52.506;13.462;2023-08-06T02:12:50;17.10;99.90
8463;DHT22;4268;52.506;13.462;2023-08-06T02:15:16;17.10;99.90
8463;DHT22;4268;52.506;13.462;2023-08-06T02:17:41;17.00;99.90
8463;DHT22;4268;52.506;13.462;2023-08-06T02:20:07;17.00;99.90
8463;DHT22;4268;52.506;13.462;2023-08-06T02:22:33;17.00;99.90
8463;DHT22;4268;52.506;13.462;2023-08-06T02:24:58;17.00;99.90
8463;DHT22;4268;52.506;13.462;2023-08-06T02:27:24;17.00;99.90
8463;DHT22;4268;52.506;13.462;2023-08-06T02:29:49;16.90;99.90
8463;DHT22;4268;52.506;13.462;2023-08-06T02:32:15;16.90;99.90
8463;DHT22;4268;52.506;13.462;2023-08-06T02:34:40;16.90;99.90
8463;DHT22;4268;52.506;13.462;2023-08-06T02:37:06;16.80;99.90
8463;DHT22;4268;52.506;13.462;2023-08-06T02:39:31;16.90;99.90
8463;DHT22;4268;52.506;13.462;2023-08-06T02:41:58;16.90;99.90
8463;DHT22;4268;52.506;13.462;2023-08-06T02:44:27;16.80;99.90
8463;DHT22;4268;52.506;13.462;2023-08-06T02:46:52;16.90;99.90
8463;DHT22;4268;52.506;13.462;2023-08-06T02:49:18;16.90;99.90
8463;DHT22;4268;52.506;13.462;2023-08-06T02:51:45;16.80;99.90
8463;DHT22;4268;52.506;13.462;2023-08-06T02:54:10;16.90;99.90
8463;DHT22;4268;52.506;13.462;2023-08-06T02:56:36;16.90;99.90
8463;DHT22;4268;52.506;13.462;2023-08-06T02:59:01;16.90;99.90
8463;DHT22;4268;52.506;13.462;2023-08-06T03:01:27;16.80;99.90
8463;DHT22;4268;52.506;13.462;2023-08-06T03:03:53;16.80;99.90
8463;DHT22;4268;52.506;13.462;2023-08-06T03:06:19;16.70;99.90
8463;DHT22;4268;52.506;13.462;2023-08-06T03:08:44;16.70;99.90
8463;DHT22;4268;52.506;13.462;2023-08-06T03:11:10;16.70;99.90
8463;DHT22;4268;52.506;13.462;2023-08-06T03:13:35;16.70;99.90
8463;DHT22;4268;52.506;13.462;2023-08-06T03:16:01;16.70;99.90
8463;DHT22;4268;52.506;13.462;2023-08-06T03:18:27;16.60;99.90
8463;DHT22;4268;52.506;13.462;2023-08-06T03:20:52;16.60;99.90
8463;DHT22;4268;52.506;13.462;2023-08-06T03:23:18;16.70;99.90
8463;DHT22;4268;52.506;13.462;2023-08-06T03:25:44;16.60;99.90
8463;DHT22;4268;52.506;13.462;2023-08-06T03:28:09;16.70;99.90
8463;DHT22;4268;52.506;13.462;2023-08-06T03:30:35;16.70;99.90
8463;DHT22;4268;52.506;13.462;2023-08-06T03:33:01;16.70;99.90
8463;DHT22;4268;52.506;13.462;2023-08-06T03:35:26;16.70;99.90
8463;DHT22;4268;52.506;13.462;2023-08-06T03:37:52;16.70;99.90
8463;DHT22;4268;52.506;13.462;2023-08-06T03:40:17;16.70;99.90
8463;DHT22;4268;52.506;13.462;2023-08-06T03:42:43;16.70;99.90
8463;DHT22;4268;52.506;13.462;2023-08-06T03:45:08;16.70;99.90
8463;DHT22;4268;52.506;13.462;2023-08-06T03:47:34;16.70;99.90
8463;DHT22;4268;52.506;13.462;2023-08-06T03:50:00;16.60;99.90
8463;DHT22;4268;52.506;13.462;2023-08-06T03:52:25;16.70;99.90
8463;DHT22;4268;52.506;13.462;2023-08-06T03:54:51;16.70;99.90
8463;DHT22;4268;52.506;13.462;2023-08-06T03:57:17;16.70;99.90
8463;DHT22;4268;52.506;13.462;2023-08-06T03:59:42;16.70;99.90
8463;DHT22;4268;52.506;13.462;2023-08-06T04:02:08;16.70;99.90
8463;DHT22;4268;52.506;13.462;2023-08-06T04:04:33;16.70;99.90
8463;DHT22;4268;52.506;13.462;2023-08-06T04:06:59;16.70;99.90
8463;DHT22;4268;52.506;13.462;2023-08-06T04:09:24;16.70;99.90
8463;DHT22;4268;52.506;13.462;2023-08-06T04:11:50;16.70;99.90
8463;DHT22;4268;52.506;13.462;2023-08-06T04:14:15;16.70;99.90
8463;DHT22;4268;52.506;13.462;2023-08-06T04:16:41;16.70;99.90
8463;DHT22;4268;52.506;13.462;2023-08-06T04:19:06;16.70;99.90
8463;DHT22;4268;52.506;13.462;2023-08-06T04:21:32;16.70;99.90
8463;DHT22;4268;52.506;13.462;2023-08-06T04:23:57;16.70;99.90
8463;DHT22;4268;52.506;13.462;2023-08-06T04:26:23;16.70;99.90
8463;DHT22;4268;52.506;13.462;2023-08-06T04:28:48;16.70;99.90
8463;DHT22;4268;52.506;13.462;2023-08-06T04:31:15;16.80;99.90
8463;DHT22;4268;52.506;13.462;2023-08-06T04:33:40;16.70;99.90
8463;DHT22;4268;52.506;13.462;2023-08-06T04:36:06;16.70;99.90
8463;DHT22;4268;52.506;13.462;2023-08-06T04:38:32;16.70;99.90
8463;DHT22;4268;52.506;13.462;2023-08-06T04:40:58;16.70;99.90
8463;DHT22;4268;52.506;13.462;2023-08-06T04:43:23;16.60;99.90
8463;DHT22;4268;52.506;13.462;2023-08-06T04:45:50;16.70;99.90
8463;DHT22;4268;52.506;13.462;2023-08-06T04:48:15;16.70;99.90
8463;DHT22;4268;52.506;13.462;2023-08-06T04:50:48;16.70;99.90
8463;DHT22;4268;52.506;13.462;2023-08-06T04:53:14;16.70;99.90
8463;DHT22;4268;52.506;13.462;2023-08-06T04:55:39;16.70;99.90
8463;DHT22;4268;52.506;13.462;2023-08-06T04:58:05;16.70;99.90
8463;DHT22;4268;52.506;13.462;2023-08-06T05:00:31;16.70;99.90
8463;DHT22;4268;52.506;13.462;2023-08-06T05:02:57;16.70;99.90
8463;DHT22;4268;52.506;13.462;2023-08-06T05:05:23;16.80;99.90
8463;DHT22;4268;52.506;13.462;2023-08-06T05:07:49;16.80;99.90
8463;DHT22;4268;52.506;13.462;2023-08-06T05:10:15;16.80;99.90
8463;DHT22;4268;52.506;13.462;2023-08-06T05:12:41;16.90;99.90
8463;DHT22;4268;52.506;13.462;2023-08-06T05:15:07;16.90;99.90
8463;DHT22;4268;52.506;13.462;2023-08-06T05:17:32;16.90;99.90
8463;DHT22;4268;52.506;13.462;2023-08-06T05:19:59;16.90;99.90
8463;DHT22;4268;52.506;13.462;2023-08-06T05:22:24;16.90;99.90
8463;DHT22;4268;52.506;13.462;2023-08-06T05:24:50;16.90;99.90
8463;DHT22;4268;52.506;13.462;2023-08-06T05:27:15;17.00;99.90
8463;DHT22;4268;52.506;13.462;2023-08-06T05:29:41;17.00;99.90
8463;DHT22;4268;52.506;13.462;2023-08-06T05:32:07;17.00;99.90
8463;DHT22;4268;52.506;13.462;2023-08-06T05:34:32;17.10;99.90
8463;DHT22;4268;52.506;13.462;2023-08-06T05:36:58;17.10;99.90
8463;DHT22;4268;52.506;13.462;2023-08-06T05:39:23;17.10;99.90
8463;DHT22;4268;52.506;13.462;2023-08-06T05:41:49;17.20;99.90
8463;DHT22;4268;52.506;13.462;2023-08-06T05:44:15;17.20;99.90
8463;DHT22;4268;52.506;13.462;2023-08-06T05:46:41;17.20;99.90
8463;DHT22;4268;52.506;13.462;2023-08-06T05:49:06;17.20;99.90
8463;DHT22;4268;52.506;13.462;2023-08-06T05:51:32;17.20;99.90
8463;DHT22;4268;52.506;13.462;2023-08-06T05:53:57;17.20;99.90
8463;DHT22;4268;52.506;13.462;2023-08-06T05:56:22;17.30;99.90
8463;DHT22;4268;52.506;13.462;2023-08-06T05:58:48;17.30;99.90
8463;DHT22;4268;52.506;13.462;2023-08-06T06:01:15;17.20;99.90
8463;DHT22;4268;52.506;13.462;2023-08-06T06:03:41;17.20;99.90
8463;DHT22;4268;52.506;13.462;2023-08-06T06:06:07;17.30;99.90
8463;DHT22;4268;52.506;13.462;2023-08-06T06:08:32;17.30;99.90
8463;DHT22;4268;52.506;13.462;2023-08-06T06:10:59;17.30;99.90
8463;DHT22;4268;52.506;13.462;2023-08-06T06:13:24;17.30;99.90
8463;DHT22;4268;52.506;13.462;2023-08-06T06:15:50;17.30;99.90
8463;DHT22;4268;52.506;13.462;2023-08-06T06:18:19;17.30;99.90
8463;DHT22;4268;52.506;13.462;2023-08-06T06:20:44;19.10;99.90
8463;DHT22;4268;52.506;13.462;2023-08-06T06:23:09;17.40;99.90
8463;DHT22;4268;52.506;13.462;2023-08-06T06:25:35;17.40;99.90
8463;DHT22;4268;52.506;13.462;2023-08-06T06:28:00;17.50;99.90
8463;DHT22;4268;52.506;13.462;2023-08-06T06:30:26;17.50;99.90
8463;DHT22;4268;52.506;13.462;2023-08-06T06:32:51;17.50;99.90
8463;DHT22;4268;52.506;13.462;2023-08-06T06:35:17;17.50;99.90
8463;DHT22;4268;52.506;13.462;2023-08-06T06:37:42;17.60;99.90
8463;DHT22;4268;52.506;13.462;2023-08-06T06:40:08;18.00;99.90
8463;DHT22;4268;52.506;13.462;2023-08-06T06:42:34;17.60;99.90
8463;DHT22;4268;52.506;13.462;2023-08-06T06:44:59;17.60;99.90
8463;DHT22;4268;52.506;13.462;2023-08-06T06:47:25;17.60;99.90
8463;DHT22;4268;52.506;13.462;2023-08-06T06:49:50;17.60;99.90
8463;DHT22;4268;52.506;13.462;2023-08-06T06:52:16;17.60;99.90
8463;DHT22;4268;52.506;13.462;2023-08-06T06:54:42;17.70;99.90
8463;DHT22;4268;52.506;13.462;2023-08-06T06:57:07;17.80;99.90
8463;DHT22;4268;52.506;13.462;2023-08-06T06:59:33;17.90;99.90
8463;DHT22;4268;52.506;13.462;2023-08-06T07:01:58;17.90;99.90
8463;DHT22;4268;52.506;13.462;2023-08-06T07:04:23;18.10;99.90
8463;DHT22;4268;52.506;13.462;2023-08-06T07:06:49;18.10;99.90
8463;DHT22;4268;52.506;13.462;2023-08-06T07:09:14;18.20;99.90
8463;DHT22;4268;52.506;13.462;2023-08-06T07:11:40;18.20;99.90
8463;DHT22;4268;52.506;13.462;2023-08-06T07:14:08;18.20;99.90
8463;DHT22;4268;52.506;13.462;2023-08-06T07:16:34;18.30;99.90
8463;DHT22;4268;52.506;13.462;2023-08-06T07:19:00;18.30;99.90
8463;DHT22;4268;52.506;13.462;2023-08-06T07:21:25;18.40;99.90
8463;DHT22;4268;52.506;13.462;2023-08-06T07:23:51;18.40;99.90
8463;DHT22;4268;52.506;13.462;2023-08-06T07:26:17;18.40;99.90
8463;DHT22;4268;52.506;13.462;2023-08-06T07:28:42;18.50;99.90
8463;DHT22;4268;52.506;13.462;2023-08-06T07:31:08;18.50;99.90
8463;DHT22;4268;52.506;13.462;2023-08-06T07:33:33;18.60;99.90
8463;DHT22;4268;52.506;13.462;2023-08-06T07:35:59;18.60;99.90
8463;DHT22;4268;52.506;13.462;2023-08-06T07:38:24;18.70;99.90
8463;DHT22;4268;52.506;13.462;2023-08-06T07:40:51;18.70;99.90
8463;DHT22;4268;52.506;13.462;2023-08-06T07:43:17;18.70;99.90
8463;DHT22;4268;52.506;13.462;2023-08-06T07:45:42;18.60;99.90
8463;DHT22;4268;52.506;13.462;2023-08-06T07:48:08;18.60;99.90
8463;DHT22;4268;52.506;13.462;2023-08-06T07:50:33;18.50;99.90
8463;DHT22;4268;52.506;13.462;2023-08-06T07:52:59;18.40;99.90
8463;DHT22;4268;52.506;13.462;2023-08-06T07:55:25;18.50;99.90
8463;DHT22;4268;52.506;13.462;2023-08-06T07:57:51;18.50;99.90
8463;DHT22;4268;52.506;13.462;2023-08-06T08:00:16;18.50;99.90
8463;DHT22;4268;52.506;13.462;2023-08-06T08:02:42;18.50;99.90
8463;DHT22;4268;52.506;13.462;2023-08-06T08:05:07;18.60;99.90
8463;DHT22;4268;52.506;13.462;2023-08-06T08:07:33;18.60;99.90
8463;DHT22;4268;52.506;13.462;2023-08-06T08:09:59;18.60;99.90
8463;DHT22;4268;52.506;13.462;2023-08-06T08:12:24;18.60;99.90
8463;DHT22;4268;52.506;13.462;2023-08-06T08:14:50;18.60;99.90
8463;DHT22;4268;52.506;13.462;2023-08-06T08:17:15;18.60;99.90
8463;DHT22;4268;52.506;13.462;2023-08-06T08:19:41;18.50;99.90
8463;DHT22;4268;52.506;13.462;2023-08-06T08:22:07;18.60;99.90
8463;DHT22;4268;52.506;13.462;2023-08-06T08:24:32;18.60;99.90
8463;DHT22;4268;52.506;13.462;2023-08-06T08:26:58;18.50;99.90
8463;DHT22;4268;52.506;13.462;2023-08-06T08:29:23;18.50;99.90
8463;DHT22;4268;52.506;13.462;2023-08-06T08:31:49;18.40;99.90
8463;DHT22;4268;52.506;13.462;2023-08-06T08:34:16;18.30;99.90
8463;DHT22;4268;52.506;13.462;2023-08-06T08:36:41;18.40;99.90
8463;DHT22;4268;52.506;13.462;2023-08-06T08:39:07;18.30;99.90
8463;DHT22;4268;52.506;13.462;2023-08-06T08:41:33;18.30;99.90
8463;DHT22;4268;52.506;13.462;2023-08-06T08:43:59;18.40;99.90
8463;DHT22;4268;52.506;13.462;2023-08-06T08:46:32;18.50;99.90
8463;DHT22;4268;52.506;13.462;2023-08-06T08:48:59;18.60;99.90
8463;DHT22;4268;52.506;13.462;2023-08-06T08:51:27;18.70;99.90
8463;DHT22;4268;52.506;13.462;2023-08-06T08:53:53;18.80;99.90
8463;DHT22;4268;52.506;13.462;2023-08-06T08:56:22;18.90;99.90
8463;DHT22;4268;52.506;13.462;2023-08-06T08:58:47;19.10;99.90
8463;DHT22;4268;52.506;13.462;2023-08-06T09:01:15;19.10;99.90
8463;DHT22;4268;52.506;13.462;2023-08-06T09:03:42;19.30;99.90
8463;DHT22;4268;52.506;13.462;2023-08-06T09:06:09;19.30;99.90
8463;DHT22;4268;52.506;13.462;2023-08-06T09:08:41;19.40;99.90
8463;DHT22;4268;52.506;13.462;2023-08-06T09:11:09;19.50;99.90
8463;DHT22;4268;52.506;13.462;2023-08-06T09:13:38;19.60;99.90
8463;DHT22;4268;52.506;13.462;2023-08-06T09:16:04;19.70;99.90
8463;DHT22;4268;52.506;13.462;2023-08-06T09:18:30;19.70;99.90
8463;DHT22;4268;52.506;13.462;2023-08-06T09:20:57;19.70;99.90
8463;DHT22;4268;52.506;13.462;2023-08-06T09:23:32;19.70;99.90
8463;DHT22;4268;52.506;13.462;2023-08-06T09:25:59;19.60;99.90
8463;DHT22;4268;52.506;13.462;2023-08-06T09:28:36;19.50;99.90
8463;DHT22;4268;52.506;13.462;2023-08-06T09:31:01;19.40;99.90
8463;DHT22;4268;52.506;13.462;2023-08-06T09:33:29;19.40;99.90
8463;DHT22;4268;52.506;13.462;2023-08-06T09:35:54;19.30;99.90
8463;DHT22;4268;52.506;13.462;2023-08-06T09:38:20;19.30;99.90
8463;DHT22;4268;52.506;13.462;2023-08-06T09:40:47;19.20;99.90
8463;DHT22;4268;52.506;13.462;2023-08-06T09:43:12;19.20;99.90
8463;DHT22;4268;52.506;13.462;2023-08-06T09:45:39;19.10;99.90
8463;DHT22;4268;52.506;13.462;2023-08-06T09:48:08;19.10;99.90
8463;DHT22;4268;52.506;13.462;2023-08-06T09:50:35;19.10;99.90
8463;DHT22;4268;52.506;13.462;2023-08-06T09:53:06;19.30;99.90
8463;DHT22;4268;52.506;13.462;2023-08-06T09:55:32;19.40;99.90
8463;DHT22;4268;52.506;13.462;2023-08-06T09:57:59;19.60;99.90
8463;DHT22;4268;52.506;13.462;2023-08-06T10:00:25;19.70;99.90
8463;DHT22;4268;52.506;13.462;2023-08-06T10:02:53;19.80;99.90
8463;DHT22;4268;52.506;13.462;2023-08-06T10:05:21;19.90;99.90
8463;DHT22;4268;52.506;13.462;2023-08-06T10:07:48;19.90;99.90
8463;DHT22;4268;52.506;13.462;2023-08-06T10:10:14;19.90;99.90
8463;DHT22;4268;52.506;13.462;2023-08-06T10:12:43;20.00;99.90
8463;DHT22;4268;52.506;13.462;2023-08-06T10:15:13;20.00;99.90
8463;DHT22;4268;52.506;13.462;2023-08-06T10:17:40;20.00;99.90
8463;DHT22;4268;52.506;13.462;2023-08-06T10:20:09;20.00;99.90
8463;DHT22;4268;52.506;13.462;2023-08-06T10:22:34;20.10;99.90
8463;DHT22;4268;52.506;13.462;2023-08-06T10:25:01;20.40;99.90
8463;DHT22;4268;52.506;13.462;2023-08-06T10:27:32;21.70;99.90
8463;DHT22;4268;52.506;13.462;2023-08-06T10:30:30;20.10;99.90
8463;DHT22;4268;52.506;13.462;2023-08-06T10:33:01;20.10;99.90
8463;DHT22;4268;52.506;13.462;2023-08-06T10:35:28;20.00;99.90
8463;DHT22;4268;52.506;13.462;2023-08-06T10:38:11;20.00;99.90
8463;DHT22;4268;52.506;13.462;2023-08-06T10:40:40;20.00;99.90
8463;DHT22;4268;52.506;13.462;2023-08-06T10:43:06;20.10;99.90
8463;DHT22;4268;52.506;13.462;2023-08-06T10:45:34;20.00;99.90
8463;DHT22;4268;52.506;13.462;2023-08-06T10:48:00;20.00;99.90
8463;DHT22;4268;52.506;13.462;2023-08-06T10:50:26;20.00;99.90
8463;DHT22;4268;52.506;13.462;2023-08-06T10:52:52;20.00;99.90
8463;DHT22;4268;52.506;13.462;2023-08-06T10:55:28;19.90;99.90
8463;DHT22;4268;52.506;13.462;2023-08-06T10:57:55;19.90;99.90
8463;DHT22;4268;52.506;13.462;2023-08-06T11:00:23;19.90;99.90
8463;DHT22;4268;52.506;13.462;2023-08-06T11:02:50;19.90;99.90
8463;DHT22;4268;52.506;13.462;2023-08-06T11:05:16;19.90;99.90
8463;DHT22;4268;52.506;13.462;2023-08-06T11:07:42;19.80;99.90
8463;DHT22;4268;52.506;13.462;2023-08-06T11:10:10;19.80;99.90
8463;DHT22;4268;52.506;13.462;2023-08-06T11:12:36;19.80;99.90
8463;DHT22;4268;52.506;13.462;2023-08-06T11:15:02;19.80;99.90
8463;DHT22;4268;52.506;13.462;2023-08-06T11:17:30;19.80;99.90
8463;DHT22;4268;52.506;13.462;2023-08-06T11:19:59;19.80;99.90
8463;DHT22;4268;52.506;13.462;2023-08-06T11:22:25;19.90;99.90
8463;DHT22;4268;52.506;13.462;2023-08-06T11:24:51;19.80;99.90
8463;DHT22;4268;52.506;13.462;2023-08-06T11:27:17;19.80;99.90
8463;DHT22;4268;52.506;13.462;2023-08-06T11:29:43;19.80;99.90
8463;DHT22;4268;52.506;13.462;2023-08-06T11:32:10;19.80;99.90
8463;DHT22;4268;52.506;13.462;2023-08-06T11:34:36;19.90;99.90
8463;DHT22;4268;52.506;13.462;2023-08-06T11:37:03;19.80;99.90
8463;DHT22;4268;52.506;13.462;2023-08-06T11:39:36;19.80;99.90
8463;DHT22;4268;52.506;13.462;2023-08-06T11:42:05;19.90;99.90
8463;DHT22;4268;52.506;13.462;2023-08-06T11:44:33;19.90;99.90
8463;DHT22;4268;52.506;13.462;2023-08-06T11:46:59;20.00;99.90
8463;DHT22;4268;52.506;13.462;2023-08-06T11:49:40;19.90;99.90
8463;DHT22;4268;52.506;13.462;2023-08-06T11:52:15;19.80;99.90
8463;DHT22;4268;52.506;13.462;2023-08-06T11:54:41;19.80;99.90
8463;DHT22;4268;52.506;13.462;2023-08-06T11:57:07;19.70;99.90
8463;DHT22;4268;52.506;13.462;2023-08-06T11:59:33;19.70;99.90
8463;DHT22;4268;52.506;13.462;2023-08-06T12:02:07;19.70;99.90
8463;DHT22;4268;52.506;13.462;2023-08-06T12:04:58;19.80;99.90
8463;DHT22;4268;52.506;13.462;2023-08-06T12:07:32;19.90;99.90
8463;DHT22;4268;52.506;13.462;2023-08-06T12:09:58;20.00;99.90
8463;DHT22;4268;52.506;13.462;2023-08-06T12:12:24;20.10;99.90
8463;DHT22;4268;52.506;13.462;2023-08-06T12:14:50;20.00;99.90
8463;DHT22;4268;52.506;13.462;2023-08-06T12:17:15;20.00;99.90
8463;DHT22;4268;52.506;13.462;2023-08-06T12:19:41;20.00;99.90
8463;DHT22;4268;52.506;13.462;2023-08-06T12:22:06;20.10;99.90
8463;DHT22;4268;52.506;13.462;2023-08-06T12:24:32;20.10;99.90
8463;DHT22;4268;52.506;13.462;2023-08-06T12:26:58;20.10;99.90
8463;DHT22;4268;52.506;13.462;2023-08-06T12:29:25;20.10;99.90
8463;DHT22;4268;52.506;13.462;2023-08-06T12:31:50;20.10;99.90
8463;DHT22;4268;52.506;13.462;2023-08-06T12:34:16;20.00;99.90
8463;DHT22;4268;52.506;13.462;2023-08-06T12:36:41;19.90;99.90
8463;DHT22;4268;52.506;13.462;2023-08-06T12:39:07;19.80;99.90
8463;DHT22;4268;52.506;13.462;2023-08-06T12:41:32;19.80;99.90
8463;DHT22;4268;52.506;13.462;2023-08-06T12:43:58;19.80;99.90
8463;DHT22;4268;52.506;13.462;2023-08-06T12:46:23;19.80;99.90
8463;DHT22;4268;52.506;13.462;2023-08-06T12:48:48;19.90;99.90
8463;DHT22;4268;52.506;13.462;2023-08-06T12:51:14;19.90;99.90
8463;DHT22;4268;52.506;13.462;2023-08-06T12:53:39;19.90;99.90
8463;DHT22;4268;52.506;13.462;2023-08-06T12:56:05;19.90;99.90
8463;DHT22;4268;52.506;13.462;2023-08-06T12:58:31;19.90;99.90
8463;DHT22;4268;52.506;13.462;2023-08-06T13:00:56;19.80;99.90
8463;DHT22;4268;52.506;13.462;2023-08-06T13:03:22;19.80;99.90
8463;DHT22;4268;52.506;13.462;2023-08-06T13:05:47;19.80;99.90
8463;DHT22;4268;52.506;13.462;2023-08-06T13:08:13;19.60;99.90
8463;DHT22;4268;52.506;13.462;2023-08-06T13:10:38;19.50;99.90
8463;DHT22;4268;52.506;13.462;2023-08-06T13:13:04;19.50;99.90
8463;DHT22;4268;52.506;13.462;2023-08-06T13:15:30;19.40;99.90
8463;DHT22;4268;52.506;13.462;2023-08-06T13:17:56;19.80;99.90
8463;DHT22;4268;52.506;13.462;2023-08-06T13:20:22;19.40;99.90
8463;DHT22;4268;52.506;13.462;2023-08-06T13:22:48;19.30;99.90
8463;DHT22;4268;52.506;13.462;2023-08-06T13:25:16;19.30;99.90
8463;DHT22;4268;52.506;13.462;2023-08-06T13:27:42;19.40;99.90
8463;DHT22;4268;52.506;13.462;2023-08-06T13:30:10;19.40;99.90
8463;DHT22;4268;52.506;13.462;2023-08-06T13:32:35;19.50;99.90
8463;DHT22;4268;52.506;13.462;2023-08-06T13:35:03;19.70;99.90
8463;DHT22;4268;52.506;13.462;2023-08-06T13:37:29;19.50;99.90
8463;DHT22;4268;52.506;13.462;2023-08-06T13:39:55;20.70;99.90
8463;DHT22;4268;52.506;13.462;2023-08-06T13:42:20;19.60;99.90
8463;DHT22;4268;52.506;13.462;2023-08-06T13:44:46;19.60;99.90
8463;DHT22;4268;52.506;13.462;2023-08-06T13:47:12;19.60;99.90
8463;DHT22;4268;52.506;13.462;2023-08-06T13:49:37;19.60;99.90
8463;DHT22;4268;52.506;13.462;2023-08-06T13:52:03;19.70;99.90
8463;DHT22;4268;52.506;13.462;2023-08-06T13:54:29;19.60;99.90
8463;DHT22;4268;52.506;13.462;2023-08-06T13:56:55;19.60;99.90
8463;DHT22;4268;52.506;13.462;2023-08-06T13:59:21;20.00;99.90
8463;DHT22;4268;52.506;13.462;2023-08-06T14:01:46;19.60;99.90
8463;DHT22;4268;52.506;13.462;2023-08-06T14:04:13;19.60;99.90
8463;DHT22;4268;52.506;13.462;2023-08-06T14:06:39;19.40;99.90
8463;DHT22;4268;52.506;13.462;2023-08-06T14:09:04;18.20;99.90
8463;DHT22;4268;52.506;13.462;2023-08-06T14:11:30;19.50;99.90
8463;DHT22;4268;52.506;13.462;2023-08-06T14:13:55;19.50;99.90
8463;DHT22;4268;52.506;13.462;2023-08-06T14:16:21;19.50;99.90
8463;DHT22;4268;52.506;13.462;2023-08-06T14:18:47;19.50;99.90
8463;DHT22;4268;52.506;13.462;2023-08-06T14:21:13;19.50;99.90
8463;DHT22;4268;52.506;13.462;2023-08-06T14:23:39;19.50;99.90
8463;DHT22;4268;52.506;13.462;2023-08-06T14:26:07;20.60;99.90
8463;DHT22;4268;52.506;13.462;2023-08-06T14:28:33;19.30;99.90
8463;DHT22;4268;52.506;13.462;2023-08-06T14:30:59;19.30;99.90
8463;DHT22;4268;52.506;13.462;2023-08-06T14:33:24;19.30;99.90
8463;DHT22;4268;52.506;13.462;2023-08-06T14:35:50;19.20;99.90
8463;DHT22;4268;52.506;13.462;2023-08-06T14:38:16;19.20;99.90
8463;DHT22;4268;52.506;13.462;2023-08-06T14:40:43;19.20;99.90
8463;DHT22;4268;52.506;13.462;2023-08-06T14:43:09;19.20;99.90
8463;DHT22;4268;52.506;13.462;2023-08-06T14:45:38;19.00;99.90
8463;DHT22;4268;52.506;13.462;2023-08-06T14:48:04;19.00;99.90
8463;DHT22;4268;52.506;13.462;2023-08-06T14:50:30;19.00;99.90
8463;DHT22;4268;52.506;13.462;2023-08-06T14:52:56;18.90;99.90
8463;DHT22;4268;52.506;13.462;2023-08-06T14:55:25;18.80;99.90
8463;DHT22;4268;52.506;13.462;2023-08-06T14:57:51;18.80;99.90
8463;DHT22;4268;52.506;13.462;2023-08-06T15:00:18;18.90;99.90
8463;DHT22;4268;52.506;13.462;2023-08-06T15:02:44;18.80;99.90
8463;DHT22;4268;52.506;13.462;2023-08-06T15:05:09;18.80;99.90
8463;DHT22;4268;52.506;13.462;2023-08-06T15:07:35;18.80;99.90
8463;DHT22;4268;52.506;13.462;2023-08-06T15:10:02;18.80;99.90
8463;DHT22;4268;52.506;13.462;2023-08-06T15:12:28;18.80;99.90
8463;DHT22;4268;52.506;13.462;2023-08-06T15:14:53;18.80;99.90
8463;DHT22;4268;52.506;13.462;2023-08-06T15:17:22;18.90;99.90
8463;DHT22;4268;52.506;13.462;2023-08-06T15:19:48;18.90;99.90
8463;DHT22;4268;52.506;13.462;2023-08-06T15:22:14;18.90;99.90
8463;DHT22;4268;52.506;13.462;2023-08-06T15:24:39;18.90;99.90
8463;DHT22;4268;52.506;13.462;2023-08-06T15:27:08;18.90;99.90
8463;DHT22;4268;52.506;13.462;2023-08-06T15:29:35;18.80;99.90
8463;DHT22;4268;52.506;13.462;2023-08-06T15:32:00;18.80;99.90
8463;DHT22;4268;52.506;13.462;2023-08-06T15:34:26;18.80;99.90
8463;DHT22;4268;52.506;13.462;2023-08-06T15:36:51;18.90;99.90
8463;DHT22;4268;52.506;13.462;2023-08-06T15:39:17;19.20;99.90
8463;DHT22;4268;52.506;13.462;2023-08-06T15:41:45;18.90;99.90
8463;DHT22;4268;52.506;13.462;2023-08-06T15:44:11;18.80;99.90